Time;durP1;ratioP1;P1;durP2;ratioP2;P2;SDS_P1;SDS_P2;PMS_P1;PMS_P2;Temp;Humidity;BMP_temperature;BMP_pressure;BME280_temperature;BME280_humidity;BME280_pressure;Samples;Min_cycle;Max_cycle;Signal;HPM_P1;HPM_P2
2023/02/07 00:00:14;;;;;;;10.00;5.43;;;;;;;-2.31;54.08;101766.09;6186715;23;20107;-78
2023/02/07 00:02:45;;;;;;;9.85;5.30;;;;;;;-2.51;54.44;101732.34;6157971;23;20071;-80
2023/02/07 00:05:12;;;;;;;7.95;5.05;;;;;;;-2.28;54.16;101771.41;6128486;23;20021;-77
2023/02/07 00:07:39;;;;;;;8.90;4.95;;;;;;;-2.35;54.20;101772.63;6158002;23;20473;-77
2023/02/07 00:10:06;;;;;;;6.72;4.40;;;;;;;-2.41;54.74;101749.22;6184455;23;20016;-80
2023/02/07 00:12:32;;;;;;;7.60;4.50;;;;;;;-2.21;54.34;101777.91;6158654;23;20017;-80
2023/02/07 00:14:58;;;;;;;9.20;5.15;;;;;;;-2.29;54.28;101775.66;6158192;23;20095;-77
2023/02/07 00:17:24;;;;;;;7.68;4.53;;;;;;;-2.29;54.15;101762.00;6159191;23;20021;-80
2023/02/07 00:19:50;;;;;;;8.90;4.63;;;;;;;-2.34;54.24;101755.69;6158760;23;20348;-80
2023/02/07 00:22:17;;;;;;;7.35;4.65;;;;;;;-2.28;53.76;101784.19;6185337;23;20020;-80
2023/02/07 00:24:43;;;;;;;8.07;4.25;;;;;;;-2.30;54.02;101795.91;6133068;23;20017;-80
2023/02/07 00:27:09;;;;;;;8.60;5.32;;;;;;;-2.24;53.96;101804.03;6159824;23;20043;-80
2023/02/07 00:29:35;;;;;;;10.10;4.88;;;;;;;-2.17;54.19;101790.09;6165507;23;20534;-81
2023/02/07 00:32:01;;;;;;;8.23;4.85;;;;;;;-2.19;53.52;101782.31;6174668;23;20017;-77
2023/02/07 00:34:27;;;;;;;8.25;4.43;;;;;;;-2.18;53.60;101770.44;6124391;23;20410;-82
2023/02/07 00:36:53;;;;;;;8.35;5.00;;;;;;;-2.07;53.84;101782.34;6174744;23;20036;-78
2023/02/07 00:39:19;;;;;;;8.13;4.75;;;;;;;-1.95;53.92;101784.03;6167298;23;20012;-79
2023/02/07 00:41:46;;;;;;;7.75;4.55;;;;;;;-2.02;53.96;101769.91;6111369;23;20024;-79
2023/02/07 00:44:12;;;;;;;8.80;5.10;;;;;;;-2.02;53.21;101781.03;6187419;23;20017;-79
2023/02/07 00:46:39;;;;;;;8.73;4.82;;;;;;;-2.07;53.48;101778.91;6137019;23;20367;-77
2023/02/07 00:49:06;;;;;;;7.28;4.20;;;;;;;-2.18;53.54;101761.16;6137210;23;20017;-80
2023/02/07 00:51:32;;;;;;;10.07;5.03;;;;;;;-2.00;53.36;101782.03;6187169;23;20023;-79
2023/02/07 00:53:58;;;;;;;6.85;4.25;;;;;;;-1.83;53.54;101801.13;6161737;23;20017;-79
2023/02/07 00:56:27;;;;;;;7.43;4.63;;;;;;;-1.90;53.00;101792.91;6114822;23;20013;-78
2023/02/07 00:58:54;;;;;;;9.48;5.15;;;;;;;-1.88;53.33;101789.72;6134908;23;20029;-79
2023/02/07 01:01:21;;;;;;;8.63;4.63;;;;;;;-1.94;52.96;101781.59;6128550;23;20056;-79
2023/02/07 01:03:47;;;;;;;6.28;4.03;;;;;;;-1.80;53.21;101791.91;6105378;23;20080;-79
2023/02/07 01:06:13;;;;;;;6.72;3.95;;;;;;;-1.72;53.11;101790.81;6154963;23;20092;-81
2023/02/07 01:08:39;;;;;;;7.05;4.40;;;;;;;-1.70;53.03;101795.25;6105324;23;20470;-79
2023/02/07 01:11:10;;;;;;;6.97;4.18;;;;;;;-1.62;53.58;101797.50;6128988;23;20017;-79
2023/02/07 01:13:37;;;;;;;7.10;4.10;;;;;;;-1.79;52.86;101779.28;6105426;23;20068;-79
2023/02/07 01:16:04;;;;;;;7.43;4.50;;;;;;;-1.67;53.03;101794.59;6156492;23;20387;-78
2023/02/07 01:18:30;;;;;;;12.73;5.20;;;;;;;-1.64;52.44;101810.13;6131086;23;20028;-80
2023/02/07 01:20:57;;;;;;;8.15;4.80;;;;;;;-1.67;52.62;101812.47;6131351;23;20033;-78
2023/02/07 01:23:22;;;;;;;6.40;4.43;;;;;;;-1.62;52.83;101823.88;6132630;23;20097;-79
2023/02/07 01:25:49;;;;;;;8.50;4.78;;;;;;;-1.55;52.93;101812.47;6157371;23;20022;-78
2023/02/07 01:28:15;;;;;;;6.90;4.35;;;;;;;-1.79;52.84;101770.72;6157566;23;20068;-80
2023/02/07 01:30:42;;;;;;;7.90;5.53;;;;;;;-1.62;52.56;101812.81;6130526;23;20024;-78
2023/02/07 01:33:09;;;;;;;8.48;4.97;;;;;;;-1.56;52.67;101828.59;6130252;23;20018;-78
2023/02/07 01:35:37;;;;;;;8.48;5.10;;;;;;;-1.56;52.44;101834.56;6157183;23;20024;-78
2023/02/07 01:38:03;;;;;;;8.45;4.75;;;;;;;-1.84;52.35;101790.81;6129897;23;20088;-80
2023/02/07 01:40:30;;;;;;;6.88;4.10;;;;;;;-1.76;52.31;101794.78;6156714;23;20021;-80
2023/02/07 01:42:58;;;;;;;10.40;5.20;;;;;;;-1.67;51.98;101821.00;6130694;23;20021;-80
2023/02/07 01:45:33;;;;;;;8.02;4.85;;;;;;;-1.72;51.61;101829.13;6104658;23;20027;-81
2023/02/07 01:48:02;;;;;;;10.55;4.85;;;;;;;-1.71;52.46;101841.09;6128511;23;20017;-79
2023/02/07 01:50:29;;;;;;;8.80;5.38;;;;;;;-1.74;51.96;101823.00;6104050;23;20025;-78
2023/02/07 01:52:57;;;;;;;7.93;4.95;;;;;;;-1.70;52.20;101831.00;6154444;23;20067;-81
2023/02/07 01:55:31;;;;;;;15.25;7.50;;;;;;;-1.99;52.01;101775.25;6105216;23;20059;-80
2023/02/07 01:57:58;;;;;;;8.23;5.10;;;;;;;-1.61;52.15;101832.47;6154120;23;20103;-80
2023/02/07 02:00:25;;;;;;;7.25;4.88;;;;;;;-1.77;52.11;101807.47;6156241;23;20021;-80
2023/02/07 02:02:51;;;;;;;9.23;4.63;;;;;;;-1.68;52.05;101838.78;6157815;23;20023;-79
2023/02/07 02:05:18;;;;;;;8.27;4.50;;;;;;;-1.79;51.72;101807.38;6184564;23;20027;-79
2023/02/07 02:07:46;;;;;;;6.90;4.28;;;;;;;-2.02;51.65;101781.03;6184965;23;20016;-78
2023/02/07 02:10:18;;;;;;;7.57;4.70;;;;;;;-1.90;51.85;101808.22;6158316;23;20016;-79
2023/02/07 02:12:54;;;;;;;7.65;3.85;;;;;;;-1.92;51.59;101805.56;6133684;23;20025;-82
2023/02/07 02:15:29;;;;;;;9.43;3.92;;;;;;;-1.64;51.79;101858.63;6158683;23;20108;-80
2023/02/07 02:18:01;;;;;;;9.48;4.82;;;;;;;-1.66;51.12;101860.22;6187267;23;20028;-80
2023/02/07 02:20:43;;;;;;;7.13;3.85;;;;;;;-1.72;51.24;101855.53;6160340;23;20051;-80
2023/02/07 02:23:12;;;;;;;7.38;4.47;;;;;;;-1.68;51.98;101862.63;6187178;23;20131;-80
2023/02/07 02:25:53;;;;;;;7.20;4.25;;;;;;;-1.59;52.20;101870.09;6186851;23;20017;-79
2023/02/07 02:28:34;;;;;;;8.63;4.63;;;;;;;-1.50;51.76;101871.53;6186224;23;20032;-79
2023/02/07 02:31:31;;;;;;;7.20;4.53;;;;;;;-1.44;51.78;101867.78;6136168;23;20059;-78
2023/02/07 02:34:25;;;;;;;8.57;4.60;;;;;;;-1.37;51.59;101862.34;6135567;23;20044;-79
2023/02/07 02:37:05;;;;;;;8.10;4.15;;;;;;;-1.38;51.62;101860.56;6185577;23;20498;-79
2023/02/07 02:39:41;;;;;;;7.80;4.10;;;;;;;-1.45;51.36;101860.00;6160801;23;20099;-80
2023/02/07 02:42:15;;;;;;;9.43;4.50;;;;;;;-1.43;51.71;101871.19;6134943;23;20371;-80
2023/02/07 02:45:11;;;;;;;14.25;5.05;;;;;;;-1.46;51.81;101863.34;6113487;23;20017;-80
2023/02/07 02:47:43;;;;;;;8.82;4.38;;;;;;;-1.51;51.45;101852.75;6186967;23;20459;-79
2023/02/07 02:50:12;;;;;;;8.00;4.75;;;;;;;-1.48;51.23;101855.53;6110932;23;20021;-78
2023/02/07 02:52:38;;;;;;;7.68;4.25;;;;;;;-1.35;51.70;101874.34;6158391;23;20020;-78
2023/02/07 02:55:05;;;;;;;6.80;4.38;;;;;;;-1.40;51.02;101876.53;6132039;23;20453;-80
2023/02/07 02:57:59;;;;;;;8.45;5.20;;;;;;;-1.37;51.31;101889.53;6158217;23;20028;-80
2023/02/07 03:00:25;;;;;;;;;;;;;;;-1.40;50.66;101884.19;6158144;23;20021;-81
2023/02/07 03:03:00;;;;;;;7.95;4.47;;;;;;;-1.50;50.81;101887.75;6159844;23;20261;-77
2023/02/07 03:05:53;;;;;;;9.70;5.05;;;;;;;-1.55;51.23;101861.00;6159528;23;20027;-82
2023/02/07 03:08:43;;;;;;;9.30;4.57;;;;;;;-1.37;51.31;101885.34;6159136;23;20021;-79
2023/02/07 03:11:14;;;;;;;13.70;5.30;;;;;;;-1.42;50.97;101878.09;6159588;23;20017;-80
2023/02/07 03:13:56;;;;;;;8.07;4.40;;;;;;;-1.40;51.07;101892.75;6188191;23;20020;-79
2023/02/07 03:16:42;;;;;;;12.18;5.40;;;;;;;-1.88;51.05;101850.97;6162072;23;20068;-79
2023/02/07 03:19:19;;;;;;;8.55;4.90;;;;;;;-1.63;50.96;101898.72;6138439;23;20105;-80
2023/02/07 03:21:50;;;;;;;9.63;5.13;;;;;;;-1.76;51.53;101870.50;6162490;23;20016;-80
2023/02/07 03:24:30;;;;;;;10.73;5.78;;;;;;;-1.55;50.76;101881.44;6163025;23;20087;-80
2023/02/07 03:27:00;;;;;;;10.35;5.57;;;;;;;-1.51;51.52;101880.84;6161280;23;20021;-79
2023/02/07 03:29:29;;;;;;;9.82;5.53;;;;;;;-1.35;51.22;101916.09;6146474;23;20021;-78
2023/02/07 03:31:59;;;;;;;9.45;5.22;;;;;;;-1.28;51.56;101925.06;6206557;23;20016;-81
2023/02/07 03:34:54;;;;;;;13.63;7.53;;;;;;;-1.32;50.71;101930.78;6130157;23;20024;-79
2023/02/07 03:37:28;;;;;;;11.15;5.63;;;;;;;-1.47;51.34;101923.72;6181034;23;20024;-79
2023/02/07 03:39:55;;;;;;;12.52;5.57;;;;;;;-1.86;51.25;101864.69;6206570;23;20024;-79
2023/02/07 03:42:27;;;;;;;9.23;4.55;;;;;;;-1.56;50.95;101936.72;6199584;23;20021;-79
2023/02/07 03:44:56;;;;;;;10.43;5.47;;;;;;;-1.63;50.83;101937.00;6163411;23;20363;-81
2023/02/07 03:47:22;;;;;;;8.85;5.00;;;;;;;-1.77;50.95;101927.44;6157537;23;20021;-81
2023/02/07 03:49:48;;;;;;;11.07;5.53;;;;;;;-1.73;50.54;101955.00;6185411;23;20017;-79
2023/02/07 03:52:14;;;;;;;9.43;4.63;;;;;;;-1.73;50.75;101967.75;6161486;23;20478;-80
2023/02/07 03:54:40;;;;;;;7.47;4.47;;;;;;;-1.76;50.76;101976.06;6187390;23;20095;-79
2023/02/07 03:57:06;;;;;;;8.55;4.63;;;;;;;-1.68;51.12;101989.44;6159088;23;20047;-81
2023/02/07 03:59:32;;;;;;;8.45;5.05;;;;;;;-1.82;50.47;101962.84;6184941;23;20031;-79
2023/02/07 04:02:00;;;;;;;10.13;5.22;;;;;;;-1.76;50.57;101972.63;6192898;23;20052;-80
2023/02/07 04:04:28;;;;;;;10.48;4.85;;;;;;;-1.65;50.77;101992.19;6188054;23;20021;-77
2023/02/07 04:06:54;;;;;;;7.43;4.50;;;;;;;-1.64;50.79;101990.53;6191021;23;20462;-79
2023/02/07 04:09:20;;;;;;;7.82;4.85;;;;;;;-1.65;50.53;101981.97;6162113;23;20017;-76
2023/02/07 04:11:50;;;;;;;12.63;5.10;;;;;;;-1.87;50.71;101944.59;6138370;23;20343;-79
2023/02/07 04:14:24;;;;;;;9.23;4.80;;;;;;;-1.56;50.48;101998.00;6163948;23;20029;-78
2023/02/07 04:16:50;;;;;;;8.43;4.65;;;;;;;-1.80;50.41;101978.25;6165672;23;20037;-80
2023/02/07 04:19:16;;;;;;;7.50;4.35;;;;;;;-1.67;50.22;102012.50;6187237;23;20032;-79
2023/02/07 04:21:42;;;;;;;9.20;5.72;;;;;;;-1.75;50.45;102002.47;6137016;23;20019;-79
2023/02/07 04:24:08;;;;;;;8.02;4.70;;;;;;;-1.67;50.42;102014.19;6188922;23;20114;-79
2023/02/07 04:26:34;;;;;;;9.30;5.13;;;;;;;-1.89;50.63;101981.00;6161427;23;20017;-77
2023/02/07 04:29:00;;;;;;;10.93;5.60;;;;;;;-1.68;50.04;102017.50;6186939;23;20429;-78
2023/02/07 04:31:26;;;;;;;10.82;5.32;;;;;;;-1.68;50.52;102012.41;6188271;23;20021;-79
2023/02/07 04:33:53;;;;;;;8.20;5.25;;;;;;;-1.72;50.97;101997.63;6162689;23;20048;-79
2023/02/07 04:36:18;;;;;;;9.00;4.90;;;;;;;-1.58;50.67;102022.53;6163106;23;20354;-81
2023/02/07 04:38:44;;;;;;;9.05;5.45;;;;;;;-1.72;50.56;102005.28;6137156;23;20017;-79
2023/02/07 04:41:10;;;;;;;7.43;4.55;;;;;;;-1.59;50.44;102037.75;6138041;23;20024;-79
2023/02/07 04:43:37;;;;;;;8.20;4.40;;;;;;;-1.89;50.61;102012.53;6189305;23;20032;-79
2023/02/07 04:46:05;;;;;;;7.45;4.35;;;;;;;-2.03;50.47;102016.56;6165276;23;20017;-79
2023/02/07 04:48:32;;;;;;;9.65;5.38;;;;;;;-1.97;50.45;102029.78;6170002;23;20163;-78
2023/02/07 04:50:58;;;;;;;9.68;6.00;;;;;;;-1.96;50.74;102012.81;6163321;23;20021;-79
2023/02/07 04:53:24;;;;;;;10.23;5.22;;;;;;;-1.73;50.36;102052.00;6138374;23;20112;-79
2023/02/07 04:55:51;;;;;;;8.80;5.20;;;;;;;-1.77;50.38;102052.53;6161463;23;20374;-78
2023/02/07 04:58:22;;;;;;;9.75;5.78;;;;;;;-1.87;50.37;102046.69;6185685;23;20017;-80
2023/02/07 05:00:48;;;;;;;8.07;4.85;;;;;;;-2.03;50.30;102034.44;6160637;23;20100;-80
2023/02/07 05:03:15;;;;;;;8.18;4.63;;;;;;;-1.94;50.38;102052.13;6140778;23;20079;-78
2023/02/07 05:05:42;;;;;;;10.48;5.50;;;;;;;-1.83;50.72;102066.59;6164635;23;20012;-79
2023/02/07 05:08:08;;;;;;;9.00;4.40;;;;;;;-1.78;50.20;102069.53;6167000;23;20024;-81
2023/02/07 05:10:34;;;;;;;7.82;4.82;;;;;;;-1.87;50.47;102077.34;6196074;23;20095;-77
2023/02/07 05:13:01;;;;;;;13.73;5.93;;;;;;;-1.70;50.93;102091.41;6168186;23;20132;-78
2023/02/07 05:15:27;;;;;;;8.70;5.28;;;;;;;-1.65;50.41;102098.56;6145275;23;20159;-79
2023/02/07 05:17:55;;;;;;;7.32;4.57;;;;;;;-1.71;50.01;102088.75;6192539;23;20017;-79
2023/02/07 05:20:22;;;;;;;7.97;4.80;;;;;;;-1.98;50.01;102057.75;6139269;23;20017;-78
2023/02/07 05:22:48;;;;;;;9.00;5.57;;;;;;;-1.74;50.06;102103.84;6164961;23;20021;-80
2023/02/07 05:25:15;;;;;;;9.45;5.45;;;;;;;-1.77;50.25;102103.59;6164760;23;20371;-78
2023/02/07 05:27:41;;;;;;;6.95;4.18;;;;;;;-1.82;50.20;102119.44;6166321;23;20016;-79
2023/02/07 05:30:07;;;;;;;8.30;4.55;;;;;;;-1.94;50.06;102118.47;6141800;23;20340;-79
2023/02/07 05:35:18;;;;;;;11.27;5.22;;;;;;;-2.18;49.86;102103.00;6166317;23;20458;-79
2023/02/07 05:37:44;;;;;;;9.27;5.00;;;;;;;-2.18;49.87;102120.88;6140816;23;20120;-78
2023/02/07 05:40:12;;;;;;;8.85;5.07;;;;;;;-2.30;50.09;102096.91;6165384;23;20017;-79
2023/02/07 05:42:43;;;;;;;8.25;4.55;;;;;;;-2.27;50.81;102095.50;6140850;23;20052;-79
2023/02/07 05:45:11;;;;;;;9.27;4.70;;;;;;;-1.92;50.80;102123.69;6115935;23;20021;-81
2023/02/07 05:47:45;;;;;;;8.70;4.72;;;;;;;-1.89;50.44;102113.72;6164614;23;20017;-79
2023/02/07 05:50:23;;;;;;;10.20;5.35;;;;;;;-1.96;50.66;102097.03;6195997;23;20036;-81
2023/02/07 05:53:03;;;;;;;9.02;5.13;;;;;;;-1.56;50.27;102158.00;6167381;23;20016;-81
2023/02/07 05:55:32;;;;;;;9.32;4.43;;;;;;;-1.71;50.19;102116.84;6166239;23;20155;-82
2023/02/07 05:57:58;;;;;;;8.00;4.38;;;;;;;-1.85;50.56;102096.22;6166914;23;20017;-78
2023/02/07 06:00:24;;;;;;;6.97;4.15;;;;;;;-1.45;50.06;102158.84;6167120;23;20454;-78
2023/02/07 06:02:51;;;;;;;9.07;5.35;;;;;;;-1.64;50.37;102108.00;6142076;23;20429;-78
2023/02/07 06:05:21;;;;;;;8.45;5.55;;;;;;;-1.28;50.13;102152.47;6192910;23;20076;-80
2023/02/07 06:07:50;;;;;;;11.88;5.38;;;;;;;-1.29;50.31;102145.56;6142193;23;20167;-78
2023/02/07 06:10:18;;;;;;;9.60;5.30;;;;;;;-1.47;49.68;102122.94;6192250;23;20028;-78
2023/02/07 06:12:44;;;;;;;8.38;5.30;;;;;;;-1.65;49.51;102101.97;6166211;23;20021;-77
2023/02/07 06:15:10;;;;;;;11.05;5.00;;;;;;;-1.42;49.75;102134.41;6192846;23;20017;-80
2023/02/07 06:17:36;;;;;;;8.02;4.68;;;;;;;-1.23;49.54;102157.19;6164123;23;20040;-79
2023/02/07 06:20:06;;;;;;;10.93;5.20;;;;;;;-1.45;49.23;102113.75;6143129;23;20091;-80
2023/02/07 06:22:36;;;;;;;7.72;4.45;;;;;;;-1.12;49.92;102164.75;6171336;23;20027;-78
2023/02/07 06:25:02;;;;;;;9.52;4.93;;;;;;;-1.41;49.57;102114.88;6140725;23;20083;-78
2023/02/07 06:27:33;;;;;;;11.07;5.70;;;;;;;-1.08;49.10;102167.66;6143446;23;20044;-78
2023/02/07 06:30:09;;;;;;;9.70;4.97;;;;;;;-1.16;49.05;102152.50;6167434;23;20017;-79
2023/02/07 06:32:35;;;;;;;8.73;5.20;;;;;;;-1.36;49.51;102118.66;6140471;23;20021;-79
2023/02/07 06:35:01;;;;;;;10.07;5.45;;;;;;;-1.17;49.72;102156.75;6165892;23;20020;-77
2023/02/07 06:37:28;;;;;;;12.07;5.47;;;;;;;-1.23;49.34;102143.50;6167782;23;20047;-80
2023/02/07 06:39:54;;;;;;;8.80;5.25;;;;;;;-1.06;49.10;102173.78;6165599;23;20074;-78
2023/02/07 06:42:23;;;;;;;11.68;5.07;;;;;;;-1.15;49.04;102156.84;6169262;23;20036;-79
2023/02/07 06:44:49;;;;;;;10.02;5.72;;;;;;;-1.13;49.42;102160.41;6166545;23;20028;-79
2023/02/07 06:47:19;;;;;;;12.85;5.05;;;;;;;-0.97;49.60;102182.94;6120545;23;20052;-78
2023/02/07 06:49:49;;;;;;;9.30;4.55;;;;;;;-1.12;48.86;102157.09;6121458;23;20508;-78
2023/02/07 06:52:15;;;;;;;9.80;5.25;;;;;;;-1.00;49.24;102186.16;6168323;23;20354;-79
2023/02/07 06:54:41;;;;;;;8.50;4.82;;;;;;;-1.14;48.82;102173.97;6194940;23;20036;-81
2023/02/07 06:57:07;;;;;;;9.45;4.78;;;;;;;-1.02;48.76;102197.03;6168168;23;20013;-77
2023/02/07 06:59:34;;;;;;;9.63;5.28;;;;;;;-1.39;49.01;102146.53;6170020;23;20052;-79
2023/02/07 07:02:03;;;;;;;9.27;4.75;;;;;;;-0.98;49.05;102209.28;6168808;23;20021;-79
2023/02/07 07:04:30;;;;;;;7.95;5.10;;;;;;;-0.94;48.90;102204.50;6170321;23;20017;-80
2023/02/07 07:06:56;;;;;;;10.88;5.43;;;;;;;-0.93;48.52;102205.41;6193240;23;20024;-81
2023/02/07 07:09:22;;;;;;;12.43;5.30;;;;;;;-0.87;49.23;102207.53;6141795;23;20067;-78
2023/02/07 07:11:48;;;;;;;12.48;6.05;;;;;;;-0.66;49.06;102223.63;6142317;23;20092;-78
2023/02/07 07:14:14;;;;;;;17.98;5.78;;;;;;;-0.92;48.71;102169.72;6166910;23;20068;-78
2023/02/07 07:16:40;;;;;;;10.35;5.30;;;;;;;-0.71;48.69;102236.03;6167904;23;20017;-78
2023/02/07 07:19:06;;;;;;;9.65;5.63;;;;;;;-1.37;49.06;102130.56;6167391;23;20017;-79
2023/02/07 07:21:32;;;;;;;12.15;5.95;;;;;;;-0.75;48.39;102231.47;6168809;23;20028;-80
2023/02/07 07:23:58;;;;;;;13.88;6.55;;;;;;;-0.76;48.73;102237.34;6143885;23;20016;-79
2023/02/07 07:26:24;;;;;;;7.55;4.82;;;;;;;-0.71;48.58;102246.28;6144785;23;20076;-80
2023/02/07 07:28:50;;;;;;;8.70;5.07;;;;;;;-0.69;48.26;102244.72;6145255;23;20134;-79
2023/02/07 07:31:16;;;;;;;10.13;5.55;;;;;;;-0.56;48.82;102241.44;6190456;23;20021;-79
2023/02/07 07:33:42;;;;;;;9.95;5.72;;;;;;;-0.67;48.51;102209.06;6164825;23;20151;-82
2023/02/07 07:36:08;;;;;;;11.48;5.32;;;;;;;-0.68;47.93;102236.28;6113911;23;20039;-82
2023/02/07 07:38:34;;;;;;;10.48;5.50;;;;;;;-0.55;48.04;102250.03;6188702;23;20053;-83
2023/02/07 07:41:00;;;;;;;10.15;4.93;;;;;;;-0.44;48.55;102246.59;6165184;23;20044;-80
2023/02/07 07:43:26;;;;;;;11.82;6.43;;;;;;;-0.33;48.30;102253.38;6172940;23;20069;-83
2023/02/07 07:46:01;;;;;;;12.20;6.72;;;;;;;-0.28;48.26;102258.88;6166165;23;20021;-79
2023/02/07 07:48:28;;;;;;;13.13;6.78;;;;;;;-0.13;49.00;102258.22;6140208;23;20025;-81
2023/02/07 07:50:58;;;;;;;15.05;6.25;;;;;;;-0.25;48.35;102227.47;6131943;23;20017;-83
2023/02/07 07:53:24;;;;;;;13.65;6.65;;;;;;;0.06;48.39;102250.22;6207544;23;20004;-81
2023/02/07 07:55:54;;;;;;;9.38;6.05;;;;;;;-0.08;47.67;102211.69;6145319;23;20016;-82
2023/02/07 07:58:24;;;;;;;12.73;6.70;;;;;;;0.29;47.71;102260.47;6166500;23;20036;-84
2023/02/07 08:00:50;;;;;;;13.57;6.70;;;;;;;-0.06;47.66;102193.91;6175650;23;20017;-80
2023/02/07 08:03:18;;;;;;;14.75;6.05;;;;;;;0.11;47.67;102229.28;6181988;23;20081;-78
2023/02/07 08:05:49;;;;;;;11.35;6.15;;;;;;;0.41;47.76;102257.00;6133266;23;20096;-81
2023/02/07 08:08:18;;;;;;;12.48;5.82;;;;;;;0.48;47.85;102256.69;6157541;23;20020;-79
2023/02/07 08:10:45;;;;;;;11.63;6.05;;;;;;;0.39;47.73;102227.81;6183004;23;20044;-81
2023/02/07 08:13:11;;;;;;;12.00;6.13;;;;;;;0.66;47.48;102249.41;6200885;23;20036;-82
2023/02/07 08:15:38;;;;;;;12.70;5.70;;;;;;;0.71;47.27;102265.09;6114583;23;20021;-81
2023/02/07 08:18:05;;;;;;;10.82;5.43;;;;;;;0.69;47.65;102246.16;6142062;23;20021;-81
2023/02/07 08:20:33;;;;;;;12.18;5.97;;;;;;;0.23;47.62;102154.13;6146974;23;20017;-80
2023/02/07 08:23:05;;;;;;;10.85;5.57;;;;;;;0.55;46.95;102229.81;6135580;23;20020;-80
2023/02/07 08:25:31;;;;;;;10.07;4.97;;;;;;;0.66;47.36;102249.41;6194249;23;20023;-80
2023/02/07 08:27:57;;;;;;;7.97;5.00;;;;;;;0.87;46.41;102267.97;6139371;23;20354;-79
2023/02/07 08:30:26;;;;;;;11.25;5.00;;;;;;;0.58;47.35;102263.34;6140041;23;20096;-80
2023/02/07 08:32:54;;;;;;;20.27;8.73;;;;;;;0.63;46.83;102245.72;6119850;23;20024;-82
2023/02/07 08:35:20;;;;;;;10.65;5.30;;;;;;;0.71;46.34;102267.69;6168820;23;20009;-81
2023/02/07 08:37:46;;;;;;;9.30;5.18;;;;;;;0.50;46.82;102219.25;6173463;23;20074;-80
2023/02/07 08:40:13;;;;;;;7.05;4.60;;;;;;;0.67;46.18;102233.22;6171432;23;20517;-80
2023/02/07 08:42:45;;;;;;;9.18;4.30;;;;;;;0.78;45.70;102275.00;6121744;23;20029;-79
2023/02/07 08:45:11;;;;;;;12.15;4.75;;;;;;;0.51;46.59;102218.47;6194270;23;20023;-79
2023/02/07 08:47:37;;;;;;;9.52;4.80;;;;;;;0.95;46.86;102272.75;6190992;23;20538;-79
2023/02/07 08:50:06;;;;;;;8.65;4.97;;;;;;;0.76;46.32;102233.00;6163262;23;20070;-79
2023/02/07 08:52:32;;;;;;;10.60;5.20;;;;;;;0.83;45.99;102252.25;6139278;23;20081;-78
2023/02/07 08:54:58;;;;;;;9.40;4.82;;;;;;;0.90;45.74;102278.44;6166616;23;20075;-80
2023/02/07 08:57:25;;;;;;;9.18;5.00;;;;;;;0.91;46.27;102263.94;6201654;23;20021;-80
2023/02/07 08:59:54;;;;;;;9.70;4.22;;;;;;;1.15;46.12;102274.13;6165749;23;20021;-80
2023/02/07 09:02:20;;;;;;;11.63;5.03;;;;;;;1.03;45.80;102231.47;6165194;23;20023;-80
2023/02/07 09:04:46;;;;;;;19.52;5.70;;;;;;;1.11;45.66;102232.00;6166203;23;20025;-80
2023/02/07 09:07:23;;;;;;;7.88;5.25;;;;;;;1.24;45.01;102245.63;6168070;23;20027;-84
2023/02/07 09:09:59;;;;;;;13.27;5.50;;;;;;;0.62;45.52;102134.66;6165448;23;20020;-80
2023/02/07 09:12:25;;;;;;;9.63;5.50;;;;;;;1.40;45.13;102225.38;6189318;23;20052;-81
2023/02/07 09:14:51;;;;;;;8.90;4.55;;;;;;;1.54;44.50;102243.38;6165003;23;20028;-79
2023/02/07 09:17:19;;;;;;;8.98;4.78;;;;;;;1.59;45.26;102232.63;6164603;23;20021;-81
2023/02/07 09:19:45;;;;;;;10.93;5.05;;;;;;;1.49;44.67;102220.84;6197789;23;20017;-81
2023/02/07 09:22:24;;;;;;;10.90;5.55;;;;;;;1.34;45.04;102219.84;6146448;23;20099;-79
2023/02/07 09:24:58;;;;;;;10.40;4.70;;;;;;;0.85;44.76;102158.41;6146229;23;20021;-81
2023/02/07 09:27:33;;;;;;;11.95;5.35;;;;;;;0.21;44.61;102077.19;6123874;23;20068;-79
2023/02/07 09:30:21;;;;;;;8.73;5.50;;;;;;;-0.04;45.03;102075.47;6171004;23;20077;-81
2023/02/07 09:34:05;;;;;;;9.68;5.13;;;;;;;1.32;44.48;102282.97;6150909;23;20017;-82
2023/02/07 09:36:39;;;;;;;11.18;5.50;;;;;;;0.23;45.08;102088.44;6163297;23;20013;-83
2023/02/07 09:39:30;;;;;;;8.43;4.93;;;;;;;0.23;44.62;102075.63;6196328;23;20036;-82
2023/02/07 09:42:53;;;;;;;;;;;;;;;;;;;;;
2023/02/07 09:46:00;;;;;;;7.63;4.75;;;;;;;1.16;44.68;102225.50;6146298;23;20017;-83
2023/02/07 09:49:11;;;;;;;11.70;4.82;;;;;;;1.72;44.09;102289.94;6199411;23;20017;-84
2023/02/07 09:51:43;;;;;;;12.85;5.72;;;;;;;1.41;44.19;102257.97;6174020;23;20049;-84
2023/02/07 09:54:42;;;;;;;8.60;5.38;;;;;;;0.88;43.72;102180.00;6177829;23;20025;-81
2023/02/07 09:57:41;;;;;;;9.77;5.63;;;;;;;1.53;44.33;102298.06;6148688;23;20017;-83
2023/02/07 10:00:19;;;;;;;11.63;5.53;;;;;;;1.50;44.43;102299.63;6199325;23;20017;-80
2023/02/07 10:02:59;;;;;;;9.40;5.43;;;;;;;0.66;44.59;102164.84;6146073;23;20013;-83
2023/02/07 10:06:03;;;;;;;10.95;5.25;;;;;;;1.25;43.95;102302.19;6170366;23;20036;-82
2023/02/07 10:08:33;;;;;;;9.20;5.22;;;;;;;0.77;44.26;102239.91;6162641;23;20014;-82
2023/02/07 10:11:33;;;;;;;9.02;5.07;;;;;;;1.25;44.46;102306.41;6163956;23;20043;-83
2023/02/07 10:15:01;;;;;;;7.68;5.18;;;;;;;1.44;44.48;102298.31;6139538;23;20013;-83
2023/02/07 10:18:00;;;;;;;10.45;4.63;;;;;;;1.55;43.71;102292.22;6163475;23;20013;-81
2023/02/07 10:21:18;;;;;;;9.13;5.45;;;;;;;1.60;44.11;102295.13;6143877;23;20020;-80
2023/02/07 10:24:04;;;;;;;10.75;4.95;;;;;;;1.82;43.65;102291.44;6077493;23;20499;-80
2023/02/07 10:26:42;;;;;;;8.35;4.70;;;;;;;1.92;43.56;102293.81;6169043;23;20091;-84
2023/02/07 10:29:21;;;;;;;8.85;5.00;;;;;;;1.60;43.25;102234.41;6147908;23;20017;-82
2023/02/07 10:31:52;;;;;;;10.10;5.13;;;;;;;1.85;43.56;102260.84;6198192;23;20017;-78
2023/02/07 10:34:22;;;;;;;10.95;5.43;;;;;;;2.08;43.36;102301.78;6170026;23;20459;-81
2023/02/07 10:36:51;;;;;;;14.80;7.88;;;;;;;1.84;43.13;102274.47;6146280;23;20017;-82
2023/02/07 10:39:46;;;;;;;14.52;8.00;;;;;;;1.52;42.99;102225.31;6130800;23;20036;-83
2023/02/07 10:42:17;;;;;;;14.82;7.88;;;;;;;1.90;43.33;102255.22;6155180;23;20013;-83
2023/02/07 10:44:43;;;;;;;15.30;8.13;;;;;;;1.71;43.31;102195.75;6153137;23;20400;-79
2023/02/07 10:47:15;;;;;;;11.43;6.43;;;;;;;2.21;43.04;102306.00;6165574;23;20012;-82
2023/02/07 10:49:50;;;;;;;9.10;5.97;;;;;;;2.04;43.03;102271.53;6168981;23;20021;-81
2023/02/07 10:52:44;;;;;;;12.30;5.80;;;;;;;1.83;43.21;102253.00;6171371;23;20017;-83
2023/02/07 10:55:13;;;;;;;13.00;6.30;;;;;;;2.01;42.91;102263.63;6161428;23;20013;-83
2023/02/07 10:57:54;;;;;;;10.85;6.43;;;;;;;1.09;42.80;102094.19;6139253;23;20086;-81
2023/02/07 11:00:31;;;;;;;10.50;6.18;;;;;;;1.91;42.77;102238.09;6126262;23;20078;-80
2023/02/07 11:03:02;;;;;;;8.90;5.25;;;;;;;1.48;42.41;102216.50;6120073;23;20089;-80
2023/02/07 11:05:41;;;;;;;12.47;6.30;;;;;;;2.00;42.74;102302.94;6164441;23;20025;-80
2023/02/07 11:11:34;;;;;;;13.57;7.63;;;;;;;1.74;42.58;102307.22;6151461;23;20076;-80
2023/02/07 11:14:01;;;;;;;;;;;;;;;1.62;43.10;102314.09;6087395;23;20366;-78
2023/02/07 11:16:28;;;;;;;15.07;7.70;;;;;;;1.60;43.30;102301.16;6184248;23;19973;-80
2023/02/07 11:19:07;;;;;;;12.68;7.68;;;;;;;1.82;43.49;102317.13;6159384;23;20086;-78
2023/02/07 11:21:42;;;;;;;15.15;8.63;;;;;;;1.88;43.07;102325.22;6157297;23;20048;-78
2023/02/07 11:24:24;;;;;;;15.00;8.30;;;;;;;1.87;42.49;102331.16;6157916;23;20024;-79
2023/02/07 11:27:11;;;;;;;14.40;8.20;;;;;;;1.87;43.13;102332.03;6134713;23;20025;-81
2023/02/07 11:29:52;;;;;;;16.52;7.75;;;;;;;1.59;43.03;102294.22;6134316;23;20028;-78
2023/02/07 11:32:19;;;;;;;15.52;7.40;;;;;;;1.32;42.98;102268.50;6170768;23;20017;-78
2023/02/07 11:34:57;;;;;;;15.35;7.40;;;;;;;0.58;42.84;102151.47;6177329;23;20020;-80
2023/02/07 11:37:35;;;;;;;14.18;7.95;;;;;;;1.46;42.71;102331.00;6173766;23;20017;-81
2023/02/07 11:40:42;;;;;;;13.32;8.10;;;;;;;0.89;42.79;102294.59;6190318;23;20021;-79
2023/02/07 11:43:21;;;;;;;12.88;7.90;;;;;;;0.40;43.51;102216.78;6104672;23;20013;-83
2023/02/07 11:46:09;;;;;;;11.45;7.28;;;;;;;1.01;42.82;102351.00;6164476;23;20044;-80
2023/02/07 11:48:39;;;;;;;11.85;7.22;;;;;;;0.98;43.42;102355.91;6189550;23;20020;-78
2023/02/07 11:51:14;;;;;;;11.60;7.07;;;;;;;0.94;43.84;102312.00;6163354;23;20041;-79
2023/02/07 11:53:58;;;;;;;11.80;6.82;;;;;;;0.39;43.63;102220.13;6137466;23;20017;-80